sensor_id;sensor_type;location;lat;lon;timestamp;pressure;altitude;pressure_sealevel;temperature;humidity
3150;BME280;32503;47.748;8.960;2023-02-03T00:00:47;98303.34;;;7.26;63.81
3150;BME280;32503;47.748;8.960;2023-02-03T00:03:14;98297.66;;;7.27;63.29
3150;BME280;32503;47.748;8.960;2023-02-03T00:05:43;98308.09;;;7.29;63.45
3150;BME280;32503;47.748;8.960;2023-02-03T00:08:12;98304.50;;;7.19;62.90
3150;BME280;32503;47.748;8.960;2023-02-03T00:10:39;98297.94;;;7.26;62.37
3150;BME280;32503;47.748;8.960;2023-02-03T00:13:07;98293.06;;;7.28;63.04
3150;BME280;32503;47.748;8.960;2023-02-03T00:15:34;98302.13;;;7.32;62.53
3150;BME280;32503;47.748;8.960;2023-02-03T00:18:01;98305.41;;;7.29;62.21
3150;BME280;32503;47.748;8.960;2023-02-03T00:20:28;98304.63;;;7.28;62.46
3150;BME280;32503;47.748;8.960;2023-02-03T00:23:04;98302.41;;;7.30;61.86
3150;BME280;32503;47.748;8.960;2023-02-03T00:25:31;98302.91;;;7.32;62.03
3150;BME280;32503;47.748;8.960;2023-02-03T00:27:58;98308.63;;;7.31;62.77
3150;BME280;32503;47.748;8.960;2023-02-03T00:30:26;98309.78;;;7.25;61.96
3150;BME280;32503;47.748;8.960;2023-02-03T00:32:53;98305.81;;;7.22;61.98
3150;BME280;32503;47.748;8.960;2023-02-03T00:35:20;98324.44;;;7.32;62.36
3150;BME280;32503;47.748;8.960;2023-02-03T00:37:50;98327.47;;;7.31;62.33
3150;BME280;32503;47.748;8.960;2023-02-03T00:40:21;98318.44;;;7.21;62.61
3150;BME280;32503;47.748;8.960;2023-02-03T00:42:49;98326.50;;;7.21;62.95
3150;BME280;32503;47.748;8.960;2023-02-03T00:45:16;98326.84;;;7.20;62.79
3150;BME280;32503;47.748;8.960;2023-02-03T00:47:43;98327.13;;;7.18;62.04
3150;BME280;32503;47.748;8.960;2023-02-03T00:50:11;98325.94;;;7.25;62.80
3150;BME280;32503;47.748;8.960;2023-02-03T00:52:38;98327.53;;;7.26;62.07
3150;BME280;32503;47.748;8.960;2023-02-03T00:55:07;98335.31;;;7.27;61.94
3150;BME280;32503;47.748;8.960;2023-02-03T00:57:35;98347.94;;;7.27;61.81
3150;BME280;32503;47.748;8.960;2023-02-03T01:00:05;98342.16;;;7.19;62.30
3150;BME280;32503;47.748;8.960;2023-02-03T01:02:32;98347.75;;;7.23;61.96
3150;BME280;32503;47.748;8.960;2023-02-03T01:04:59;98331.56;;;7.09;62.09
3150;BME280;32503;47.748;8.960;2023-02-03T01:07:26;98325.97;;;7.06;62.41
3150;BME280;32503;47.748;8.960;2023-02-03T01:09:53;98340.75;;;7.08;62.41
3150;BME280;32503;47.748;8.960;2023-02-03T01:12:20;98330.19;;;7.12;62.09
3150;BME280;32503;47.748;8.960;2023-02-03T01:14:48;98343.84;;;7.15;61.92
3150;BME280;32503;47.748;8.960;2023-02-03T01:17:15;98344.56;;;7.21;61.76
3150;BME280;32503;47.748;8.960;2023-02-03T01:19:43;98353.94;;;7.24;62.31
3150;BME280;32503;47.748;8.960;2023-02-03T01:22:10;98363.31;;;7.26;61.86
3150;BME280;32503;47.748;8.960;2023-02-03T01:24:37;98357.22;;;7.20;61.20
3150;BME280;32503;47.748;8.960;2023-02-03T01:27:04;98353.75;;;7.20;61.39
3150;BME280;32503;47.748;8.960;2023-02-03T01:29:31;98353.94;;;7.24;61.27
3150;BME280;32503;47.748;8.960;2023-02-03T01:31:59;98347.72;;;7.09;61.63
3150;BME280;32503;47.748;8.960;2023-02-03T01:34:26;98339.75;;;7.18;61.71
3150;BME280;32503;47.748;8.960;2023-02-03T01:36:54;98347.34;;;7.16;61.87
3150;BME280;32503;47.748;8.960;2023-02-03T01:39:21;98336.78;;;7.19;61.17
3150;BME280;32503;47.748;8.960;2023-02-03T01:41:48;98341.56;;;7.22;61.40
3150;BME280;32503;47.748;8.960;2023-02-03T01:44:44;98361.38;;;7.13;61.22
3150;BME280;32503;47.748;8.960;2023-02-03T01:47:21;98348.94;;;7.17;61.66
3150;BME280;32503;47.748;8.960;2023-02-03T01:49:55;98349.94;;;7.21;61.77
3150;BME280;32503;47.748;8.960;2023-02-03T01:52:24;98347.75;;;7.23;61.72
3150;BME280;32503;47.748;8.960;2023-02-03T01:54:55;98351.75;;;7.26;61.63
3150;BME280;32503;47.748;8.960;2023-02-03T01:57:28;98348.13;;;7.16;61.12
3150;BME280;32503;47.748;8.960;2023-02-03T02:00:00;98358.09;;;7.16;61.72
3150;BME280;32503;47.748;8.960;2023-02-03T02:02:30;98366.44;;;7.14;61.11
3150;BME280;32503;47.748;8.960;2023-02-03T02:05:06;98356.31;;;7.11;61.29
3150;BME280;32503;47.748;8.960;2023-02-03T02:07:35;98363.75;;;7.14;62.12
3150;BME280;32503;47.748;8.960;2023-02-03T02:10:05;98371.63;;;7.11;61.33
3150;BME280;32503;47.748;8.960;2023-02-03T02:12:32;98380.50;;;7.11;61.75
3150;BME280;32503;47.748;8.960;2023-02-03T02:14:59;98377.00;;;7.11;61.49
3150;BME280;32503;47.748;8.960;2023-02-03T02:17:56;98356.88;;;7.08;61.78
3150;BME280;32503;47.748;8.960;2023-02-03T02:21:11;98349.81;;;7.12;61.49
3150;BME280;32503;47.748;8.960;2023-02-03T02:24:18;98330.41;;;7.15;61.41
3150;BME280;32503;47.748;8.960;2023-02-03T02:26:58;98324.44;;;7.18;61.15
3150;BME280;32503;47.748;8.960;2023-02-03T02:33:00;98292.66;;;7.20;60.65
3150;BME280;32503;47.748;8.960;2023-02-03T02:35:42;98311.50;;;7.20;61.12
3150;BME280;32503;47.748;8.960;2023-02-03T02:38:20;98313.88;;;7.22;60.80
3150;BME280;32503;47.748;8.960;2023-02-03T02:40:53;98313.69;;;7.18;60.62
3150;BME280;32503;47.748;8.960;2023-02-03T02:43:28;98305.53;;;7.24;60.99
3150;BME280;32503;47.748;8.960;2023-02-03T02:46:04;98312.16;;;7.12;60.50
3150;BME280;32503;47.748;8.960;2023-02-03T02:48:41;98322.03;;;7.17;60.73
3150;BME280;32503;47.748;8.960;2023-02-03T02:51:12;98306.19;;;7.15;60.87
3150;BME280;32503;47.748;8.960;2023-02-03T02:53:48;98303.50;;;7.15;60.37
3150;BME280;32503;47.748;8.960;2023-02-03T02:56:17;98320.66;;;7.19;60.54
3150;BME280;32503;47.748;8.960;2023-02-03T02:58:47;98313.06;;;7.08;60.72
3150;BME280;32503;47.748;8.960;2023-02-03T03:01:15;98324.03;;;7.11;61.13
3150;BME280;32503;47.748;8.960;2023-02-03T03:03:44;98309.84;;;7.06;60.95
3150;BME280;32503;47.748;8.960;2023-02-03T03:06:15;98317.25;;;7.14;60.60
3150;BME280;32503;47.748;8.960;2023-02-03T03:08:49;98314.84;;;7.12;59.94
3150;BME280;32503;47.748;8.960;2023-02-03T03:11:20;98318.31;;;7.13;60.77
3150;BME280;32503;47.748;8.960;2023-02-03T03:13:51;98305.50;;;7.10;60.75
3150;BME280;32503;47.748;8.960;2023-02-03T03:16:23;98308.00;;;7.20;60.15
3150;BME280;32503;47.748;8.960;2023-02-03T03:18:55;98304.59;;;7.14;59.75
3150;BME280;32503;47.748;8.960;2023-02-03T03:21:28;98305.50;;;7.10;60.68
3150;BME280;32503;47.748;8.960;2023-02-03T03:24:00;98286.59;;;7.15;59.63
3150;BME280;32503;47.748;8.960;2023-02-03T03:26:34;98281.00;;;7.11;60.07
3150;BME280;32503;47.748;8.960;2023-02-03T03:29:12;98263.63;;;7.03;60.15
3150;BME280;32503;47.748;8.960;2023-02-03T03:31:41;98294.53;;;7.06;60.14
3150;BME280;32503;47.748;8.960;2023-02-03T03:34:10;98302.88;;;7.05;59.76
3150;BME280;32503;47.748;8.960;2023-02-03T03:36:43;98311.25;;;7.03;59.69
3150;BME280;32503;47.748;8.960;2023-02-03T03:39:16;98300.31;;;7.13;60.08
3150;BME280;32503;47.748;8.960;2023-02-03T03:41:56;98285.94;;;7.04;59.92
3150;BME280;32503;47.748;8.960;2023-02-03T03:44:28;98284.34;;;7.03;59.73
3150;BME280;32503;47.748;8.960;2023-02-03T03:47:08;98282.47;;;7.03;59.23
3150;BME280;32503;47.748;8.960;2023-02-03T03:49:40;98272.81;;;7.02;59.45
3150;BME280;32503;47.748;8.960;2023-02-03T03:52:12;98270.91;;;7.03;59.83
3150;BME280;32503;47.748;8.960;2023-02-03T03:54:41;98278.41;;;7.06;59.24
3150;BME280;32503;47.748;8.960;2023-02-03T03:57:12;98272.00;;;7.02;59.53
3150;BME280;32503;47.748;8.960;2023-02-03T03:59:45;98260.56;;;7.10;58.56
3150;BME280;32503;47.748;8.960;2023-02-03T04:02:13;98258.84;;;7.00;59.13
3150;BME280;32503;47.748;8.960;2023-02-03T04:04:44;98244.69;;;6.95;58.63
3150;BME280;32503;47.748;8.960;2023-02-03T04:07:12;98243.22;;;7.02;58.46
3150;BME280;32503;47.748;8.960;2023-02-03T04:09:40;98261.16;;;7.07;58.39
3150;BME280;32503;47.748;8.960;2023-02-03T04:12:17;98273.50;;;7.08;59.27
3150;BME280;32503;47.748;8.960;2023-02-03T04:14:46;98286.38;;;7.11;59.10
3150;BME280;32503;47.748;8.960;2023-02-03T04:17:13;98290.72;;;7.07;59.11
3150;BME280;32503;47.748;8.960;2023-02-03T04:19:40;98276.00;;;7.05;59.13
3150;BME280;32503;47.748;8.960;2023-02-03T04:22:09;98263.25;;;7.10;58.39
3150;BME280;32503;47.748;8.960;2023-02-03T04:24:36;98257.38;;;7.08;59.03
3150;BME280;32503;47.748;8.960;2023-02-03T04:27:03;98275.88;;;6.96;58.47
3150;BME280;32503;47.748;8.960;2023-02-03T04:29:30;98267.81;;;6.96;58.72
3150;BME280;32503;47.748;8.960;2023-02-03T04:31:57;98266.50;;;6.93;59.28
3150;BME280;32503;47.748;8.960;2023-02-03T04:34:24;98289.13;;;6.92;58.46
3150;BME280;32503;47.748;8.960;2023-02-03T04:36:51;98306.16;;;7.01;58.74
3150;BME280;32503;47.748;8.960;2023-02-03T04:39:19;98317.38;;;6.90;58.89
3150;BME280;32503;47.748;8.960;2023-02-03T04:41:46;98310.50;;;6.83;58.60
3150;BME280;32503;47.748;8.960;2023-02-03T04:44:13;98338.88;;;6.90;58.72
3150;BME280;32503;47.748;8.960;2023-02-03T04:46:40;98350.75;;;6.89;59.18
3150;BME280;32503;47.748;8.960;2023-02-03T04:49:07;98349.84;;;6.93;58.98
3150;BME280;32503;47.748;8.960;2023-02-03T04:51:36;98343.09;;;6.96;59.26
3150;BME280;32503;47.748;8.960;2023-02-03T04:54:03;98339.31;;;6.97;59.02
3150;BME280;32503;47.748;8.960;2023-02-03T04:56:32;98332.34;;;6.96;59.00
3150;BME280;32503;47.748;8.960;2023-02-03T04:58:59;98339.22;;;7.02;58.89
3150;BME280;32503;47.748;8.960;2023-02-03T05:01:26;98346.72;;;7.05;59.01
3150;BME280;32503;47.748;8.960;2023-02-03T05:03:53;98345.63;;;7.06;59.64
3150;BME280;32503;47.748;8.960;2023-02-03T05:06:22;98338.16;;;7.03;59.53
3150;BME280;32503;47.748;8.960;2023-02-03T05:08:50;98352.28;;;7.09;58.66
3150;BME280;32503;47.748;8.960;2023-02-03T05:11:17;98343.94;;;7.10;58.91
3150;BME280;32503;47.748;8.960;2023-02-03T05:13:46;98341.53;;;7.09;59.13
3150;BME280;32503;47.748;8.960;2023-02-03T05:16:13;98347.63;;;7.14;59.27
3150;BME280;32503;47.748;8.960;2023-02-03T05:18:40;98350.22;;;7.19;58.55
3150;BME280;32503;47.748;8.960;2023-02-03T05:21:07;98339.19;;;7.21;59.17
3150;BME280;32503;47.748;8.960;2023-02-03T05:23:35;98346.97;;;7.22;59.18
3150;BME280;32503;47.748;8.960;2023-02-03T05:26:02;98352.91;;;7.19;58.75
3150;BME280;32503;47.748;8.960;2023-02-03T05:28:29;98362.00;;;7.24;58.87
3150;BME280;32503;47.748;8.960;2023-02-03T05:30:59;98355.81;;;7.23;58.91
3150;BME280;32503;47.748;8.960;2023-02-03T05:33:26;98346.38;;;7.26;58.78
3150;BME280;32503;47.748;8.960;2023-02-03T05:35:53;98345.97;;;7.18;58.47
3150;BME280;32503;47.748;8.960;2023-02-03T05:38:21;98346.97;;;7.22;57.67
3150;BME280;32503;47.748;8.960;2023-02-03T05:40:48;98333.09;;;7.15;57.72
3150;BME280;32503;47.748;8.960;2023-02-03T05:43:33;98312.06;;;7.17;58.34
3150;BME280;32503;47.748;8.960;2023-02-03T05:46:03;98294.25;;;7.08;58.15
3150;BME280;32503;47.748;8.960;2023-02-03T05:50:43;98305.22;;;7.11;57.89
3150;BME280;32503;47.748;8.960;2023-02-03T05:53:11;98304.47;;;7.06;58.15
3150;BME280;32503;47.748;8.960;2023-02-03T05:55:38;98306.19;;;7.15;58.73
3150;BME280;32503;47.748;8.960;2023-02-03T05:58:06;98296.19;;;7.02;58.35
3150;BME280;32503;47.748;8.960;2023-02-03T06:00:33;98305.38;;;7.01;58.81
3150;BME280;32503;47.748;8.960;2023-02-03T06:03:01;98303.25;;;6.98;58.49
3150;BME280;32503;47.748;8.960;2023-02-03T06:05:30;98305.28;;;7.06;59.35
3150;BME280;32503;47.748;8.960;2023-02-03T06:08:00;98319.09;;;6.99;58.75
3150;BME280;32503;47.748;8.960;2023-02-03T06:10:27;98339.22;;;7.02;59.38
3150;BME280;32503;47.748;8.960;2023-02-03T06:12:54;98334.88;;;7.06;59.36
3150;BME280;32503;47.748;8.960;2023-02-03T06:15:21;98330.50;;;7.10;59.53
3150;BME280;32503;47.748;8.960;2023-02-03T06:17:49;98321.94;;;7.08;58.83
3150;BME280;32503;47.748;8.960;2023-02-03T06:20:18;98325.19;;;7.05;59.08
3150;BME280;32503;47.748;8.960;2023-02-03T06:22:45;98325.31;;;7.14;58.87
3150;BME280;32503;47.748;8.960;2023-02-03T06:25:13;98328.97;;;7.04;60.32
3150;BME280;32503;47.748;8.960;2023-02-03T06:27:40;98331.56;;;7.09;59.52
3150;BME280;32503;47.748;8.960;2023-02-03T06:30:09;98341.34;;;7.05;60.17
3150;BME280;32503;47.748;8.960;2023-02-03T06:32:37;98345.41;;;7.02;59.83
3150;BME280;32503;47.748;8.960;2023-02-03T06:35:04;98350.41;;;7.09;60.41
3150;BME280;32503;47.748;8.960;2023-02-03T06:37:31;98358.66;;;6.99;60.52
3150;BME280;32503;47.748;8.960;2023-02-03T06:40:00;98374.69;;;7.04;59.69
3150;BME280;32503;47.748;8.960;2023-02-03T06:42:28;98362.34;;;7.03;59.74
3150;BME280;32503;47.748;8.960;2023-02-03T06:44:56;98363.63;;;7.06;60.28
3150;BME280;32503;47.748;8.960;2023-02-03T06:47:23;98366.63;;;7.04;60.33
3150;BME280;32503;47.748;8.960;2023-02-03T06:49:50;98375.50;;;7.05;59.52
3150;BME280;32503;47.748;8.960;2023-02-03T06:52:17;98374.19;;;7.02;60.51
3150;BME280;32503;47.748;8.960;2023-02-03T06:54:44;98367.44;;;7.05;60.32
3150;BME280;32503;47.748;8.960;2023-02-03T06:57:12;98360.03;;;6.96;59.64
3150;BME280;32503;47.748;8.960;2023-02-03T06:59:40;98355.00;;;6.90;60.07
3150;BME280;32503;47.748;8.960;2023-02-03T07:02:09;98368.88;;;6.97;60.66
3150;BME280;32503;47.748;8.960;2023-02-03T07:04:36;98363.28;;;6.93;60.99
3150;BME280;32503;47.748;8.960;2023-02-03T07:07:04;98355.44;;;6.97;61.37
3150;BME280;32503;47.748;8.960;2023-02-03T07:09:31;98350.38;;;6.95;61.36
3150;BME280;32503;47.748;8.960;2023-02-03T07:11:58;98349.19;;;7.01;61.61
3150;BME280;32503;47.748;8.960;2023-02-03T07:14:25;98341.34;;;7.05;62.34
3150;BME280;32503;47.748;8.960;2023-02-03T07:16:54;98327.59;;;7.07;62.50
3150;BME280;32503;47.748;8.960;2023-02-03T07:19:21;98308.47;;;7.08;61.94
3150;BME280;32503;47.748;8.960;2023-02-03T07:21:48;98322.84;;;7.17;61.49
3150;BME280;32503;47.748;8.960;2023-02-03T07:24:15;98325.22;;;7.19;61.72
3150;BME280;32503;47.748;8.960;2023-02-03T07:26:42;98317.25;;;7.14;61.46
3150;BME280;32503;47.748;8.960;2023-02-03T07:29:09;98322.84;;;7.17;61.46
3150;BME280;32503;47.748;8.960;2023-02-03T07:31:36;98312.47;;;7.25;61.61
3150;BME280;32503;47.748;8.960;2023-02-03T07:34:05;98315.09;;;7.30;60.73
3150;BME280;32503;47.748;8.960;2023-02-03T07:36:32;98314.69;;;7.22;61.25
3150;BME280;32503;47.748;8.960;2023-02-03T07:38:59;98326.44;;;7.27;61.13
3150;BME280;32503;47.748;8.960;2023-02-03T07:41:26;98331.53;;;7.28;61.14
3150;BME280;32503;47.748;8.960;2023-02-03T07:43:53;98342.97;;;7.34;60.63
3150;BME280;32503;47.748;8.960;2023-02-03T07:46:20;98357.75;;;7.36;60.76
3150;BME280;32503;47.748;8.960;2023-02-03T07:48:47;98366.19;;;7.30;61.98
3150;BME280;32503;47.748;8.960;2023-02-03T07:51:16;98356.72;;;7.32;61.62
3150;BME280;32503;47.748;8.960;2023-02-03T07:53:43;98353.94;;;7.37;61.11
3150;BME280;32503;47.748;8.960;2023-02-03T07:56:10;98353.75;;;7.34;60.88
3150;BME280;32503;47.748;8.960;2023-02-03T07:58:38;98346.19;;;7.36;60.95
3150;BME280;32503;47.748;8.960;2023-02-03T08:01:10;98342.81;;;7.44;60.54
3150;BME280;32503;47.748;8.960;2023-02-03T08:03:37;98360.19;;;7.52;60.84
3150;BME280;32503;47.748;8.960;2023-02-03T08:06:05;98367.56;;;7.74;60.13
3150;BME280;32503;47.748;8.960;2023-02-03T08:08:34;98354.50;;;8.09;59.73
3150;BME280;32503;47.748;8.960;2023-02-03T08:11:02;98338.78;;;8.25;58.09
3150;BME280;32503;47.748;8.960;2023-02-03T08:13:29;98334.56;;;8.32;58.08
3150;BME280;32503;47.748;8.960;2023-02-03T08:15:56;98350.38;;;8.25;57.86
3150;BME280;32503;47.748;8.960;2023-02-03T08:18:23;98353.66;;;8.22;58.07
3150;BME280;32503;47.748;8.960;2023-02-03T08:20:50;98355.75;;;8.25;57.80
3150;BME280;32503;47.748;8.960;2023-02-03T08:23:17;98339.00;;;8.28;58.17
3150;BME280;32503;47.748;8.960;2023-02-03T08:25:50;98345.25;;;8.38;57.74
3150;BME280;32503;47.748;8.960;2023-02-03T08:28:17;98345.56;;;8.50;57.69
3150;BME280;32503;47.748;8.960;2023-02-03T08:30:44;98338.69;;;8.66;57.16
3150;BME280;32503;47.748;8.960;2023-02-03T08:33:11;98329.88;;;8.75;56.63
3150;BME280;32503;47.748;8.960;2023-02-03T08:35:38;98341.66;;;8.79;56.49
3150;BME280;32503;47.748;8.960;2023-02-03T08:38:06;98340.84;;;8.78;56.39
3150;BME280;32503;47.748;8.960;2023-02-03T08:40:33;98349.94;;;8.60;56.53
3150;BME280;32503;47.748;8.960;2023-02-03T08:43:01;98359.28;;;8.62;56.60
3150;BME280;32503;47.748;8.960;2023-02-03T08:45:28;98355.50;;;8.63;56.51
3150;BME280;32503;47.748;8.960;2023-02-03T08:47:56;98362.47;;;8.64;56.34
3150;BME280;32503;47.748;8.960;2023-02-03T08:50:23;98362.84;;;8.71;56.39
3150;BME280;32503;47.748;8.960;2023-02-03T08:52:50;98355.75;;;8.98;55.93
3150;BME280;32503;47.748;8.960;2023-02-03T08:55:18;98349.09;;;9.49;55.03
3150;BME280;32503;47.748;8.960;2023-02-03T08:57:45;98349.09;;;9.98;52.95
3150;BME280;32503;47.748;8.960;2023-02-03T09:00:15;98348.75;;;10.40;51.87
3150;BME280;32503;47.748;8.960;2023-02-03T09:02:42;98362.75;;;10.59;50.93
3150;BME280;32503;47.748;8.960;2023-02-03T09:05:09;98362.59;;;10.91;49.98
3150;BME280;32503;47.748;8.960;2023-02-03T09:07:37;98357.78;;;11.23;49.91
3150;BME280;32503;47.748;8.960;2023-02-03T09:10:04;98361.47;;;11.65;48.39
3150;BME280;32503;47.748;8.960;2023-02-03T09:12:32;98361.53;;;11.95;47.54
3150;BME280;32503;47.748;8.960;2023-02-03T09:14:59;98352.47;;;12.21;46.92
3150;BME280;32503;47.748;8.960;2023-02-03T09:17:27;98357.28;;;12.66;46.47
3150;BME280;32503;47.748;8.960;2023-02-03T09:19:54;98350.81;;;12.92;45.48
3150;BME280;32503;47.748;8.960;2023-02-03T09:22:21;98348.53;;;12.60;45.75
3150;BME280;32503;47.748;8.960;2023-02-03T09:24:48;98364.28;;;12.46;45.27
3150;BME280;32503;47.748;8.960;2023-02-03T09:27:16;98370.84;;;12.15;46.50
3150;BME280;32503;47.748;8.960;2023-02-03T09:29:43;98369.63;;;12.04;46.16
3150;BME280;32503;47.748;8.960;2023-02-03T09:32:10;98394.41;;;11.85;46.42
3150;BME280;32503;47.748;8.960;2023-02-03T09:34:38;98390.94;;;12.14;47.33
3150;BME280;32503;47.748;8.960;2023-02-03T09:37:06;98384.66;;;12.52;46.93
3150;BME280;32503;47.748;8.960;2023-02-03T09:39:33;98369.91;;;12.62;45.67
3150;BME280;32503;47.748;8.960;2023-02-03T09:42:16;98358.56;;;12.60;45.66
3150;BME280;32503;47.748;8.960;2023-02-03T09:44:50;98356.47;;;12.44;46.17
3150;BME280;32503;47.748;8.960;2023-02-03T09:47:22;98364.69;;;12.57;45.83
3150;BME280;32503;47.748;8.960;2023-02-03T09:49:55;98371.41;;;12.50;45.78
3150;BME280;32503;47.748;8.960;2023-02-03T09:52:25;98380.75;;;12.83;51.52
3150;BME280;32503;47.748;8.960;2023-02-03T09:55:01;98372.28;;;13.18;47.31
3150;BME280;32503;47.748;8.960;2023-02-03T09:57:31;98371.97;;;13.53;44.46
3150;BME280;32503;47.748;8.960;2023-02-03T10:00:21;98377.34;;;13.74;43.68
3150;BME280;32503;47.748;8.960;2023-02-03T10:02:55;98380.50;;;13.76;43.13
3150;BME280;32503;47.748;8.960;2023-02-03T10:05:51;98375.13;;;13.42;43.06
3150;BME280;32503;47.748;8.960;2023-02-03T10:08:39;98376.53;;;13.27;43.39
3150;BME280;32503;47.748;8.960;2023-02-03T10:11:18;98373.44;;;13.38;43.54
3150;BME280;32503;47.748;8.960;2023-02-03T10:13:57;98370.75;;;13.62;43.78
3150;BME280;32503;47.748;8.960;2023-02-03T10:16:42;98362.59;;;13.62;43.21
3150;BME280;32503;47.748;8.960;2023-02-03T10:19:17;98362.84;;;13.70;43.23
3150;BME280;32503;47.748;8.960;2023-02-03T10:21:50;98366.47;;;14.11;42.93
3150;BME280;32503;47.748;8.960;2023-02-03T10:24:27;98352.06;;;14.35;42.10
3150;BME280;32503;47.748;8.960;2023-02-03T10:26:59;98352.38;;;14.58;41.79
3150;BME280;32503;47.748;8.960;2023-02-03T10:29:33;98359.16;;;14.64;41.95
3150;BME280;32503;47.748;8.960;2023-02-03T10:32:01;98361.06;;;14.76;41.62
3150;BME280;32503;47.748;8.960;2023-02-03T10:34:28;98352.81;;;14.72;41.40
3150;BME280;32503;47.748;8.960;2023-02-03T10:36:59;98345.50;;;14.76;41.36
3150;BME280;32503;47.748;8.960;2023-02-03T10:39:40;98326.03;;;14.09;42.51
3150;BME280;32503;47.748;8.960;2023-02-03T10:42:10;98345.38;;;13.71;43.16
3150;BME280;32503;47.748;8.960;2023-02-03T10:44:39;98339.03;;;13.42;43.76
3150;BME280;32503;47.748;8.960;2023-02-03T10:47:20;98343.44;;;13.13;44.66
3150;BME280;32503;47.748;8.960;2023-02-03T10:49:52;98331.53;;;13.05;44.80
3150;BME280;32503;47.748;8.960;2023-02-03T10:52:29;98335.94;;;13.31;44.65
3150;BME280;32503;47.748;8.960;2023-02-03T10:54:57;98316.63;;;13.45;44.26
3150;BME280;32503;47.748;8.960;2023-02-03T10:57:27;98306.38;;;13.30;44.37
3150;BME280;32503;47.748;8.960;2023-02-03T11:00:07;98312.47;;;13.26;44.69
3150;BME280;32503;47.748;8.960;2023-02-03T11:02:45;98309.75;;;13.26;48.24
3150;BME280;32503;47.748;8.960;2023-02-03T11:05:21;98307.53;;;13.07;44.91
3150;BME280;32503;47.748;8.960;2023-02-03T11:07:51;98295.56;;;12.75;45.35
3150;BME280;32503;47.748;8.960;2023-02-03T11:10:27;98294.53;;;12.67;45.49
3150;BME280;32503;47.748;8.960;2023-02-03T11:13:16;98290.03;;;12.71;45.81
3150;BME280;32503;47.748;8.960;2023-02-03T11:15:55;98283.56;;;12.64;45.60
3150;BME280;32503;47.748;8.960;2023-02-03T11:18:54;98302.22;;;12.65;45.86
3150;BME280;32503;47.748;8.960;2023-02-03T11:21:25;98302.44;;;12.39;46.13
3150;BME280;32503;47.748;8.960;2023-02-03T11:24:01;98296.59;;;12.07;46.76
3150;BME280;32503;47.748;8.960;2023-02-03T11:26:33;98303.44;;;12.05;46.24
3150;BME280;32503;47.748;8.960;2023-02-03T11:29:04;98294.44;;;11.92;46.47
3150;BME280;32503;47.748;8.960;2023-02-03T11:31:34;98300.19;;;11.90;49.90
3150;BME280;32503;47.748;8.960;2023-02-03T11:34:05;98294.59;;;12.17;46.83
3150;BME280;32503;47.748;8.960;2023-02-03T11:36:34;98296.47;;;12.25;46.22
3150;BME280;32503;47.748;8.960;2023-02-03T11:39:20;98302.22;;;12.23;46.14
3150;BME280;32503;47.748;8.960;2023-02-03T11:41:49;98307.88;;;12.09;46.58
3150;BME280;32503;47.748;8.960;2023-02-03T11:44:21;98299.38;;;11.90;46.81
3150;BME280;32503;47.748;8.960;2023-02-03T11:46:52;98287.56;;;11.86;47.20
3150;BME280;32503;47.748;8.960;2023-02-03T11:50:14;98276.81;;;11.77;46.80
3150;BME280;32503;47.748;8.960;2023-02-03T11:53:17;98276.94;;;11.81;46.95
3150;BME280;32503;47.748;8.960;2023-02-03T11:55:58;98260.25;;;12.00;46.71
3150;BME280;32503;47.748;8.960;2023-02-03T11:58:49;98250.00;;;11.84;47.04
3150;BME280;32503;47.748;8.960;2023-02-03T12:01:31;98256.66;;;11.87;46.53
3150;BME280;32503;47.748;8.960;2023-02-03T12:04:38;98281.81;;;11.96;46.81
3150;BME280;32503;47.748;8.960;2023-02-03T12:07:50;98284.06;;;11.94;47.33
3150;BME280;32503;47.748;8.960;2023-02-03T12:10:34;98273.69;;;11.96;47.58
3150;BME280;32503;47.748;8.960;2023-02-03T12:13:23;98248.19;;;11.97;47.29
3150;BME280;32503;47.748;8.960;2023-02-03T12:16:13;98240.69;;;11.94;46.83
3150;BME280;32503;47.748;8.960;2023-02-03T12:18:55;98229.41;;;11.83;47.33
3150;BME280;32503;47.748;8.960;2023-02-03T12:21:46;98237.97;;;11.64;47.83
3150;BME280;32503;47.748;8.960;2023-02-03T12:24:36;98230.44;;;11.70;48.11
3150;BME280;32503;47.748;8.960;2023-02-03T12:27:21;98225.94;;;11.83;47.29
3150;BME280;32503;47.748;8.960;2023-02-03T12:29:58;98229.00;;;11.72;48.15
3150;BME280;32503;47.748;8.960;2023-02-03T12:32:33;98215.44;;;11.51;47.92
3150;BME280;32503;47.748;8.960;2023-02-03T12:35:12;98223.41;;;11.48;47.83
3150;BME280;32503;47.748;8.960;2023-02-03T12:37:46;98224.13;;;11.27;48.39
3150;BME280;32503;47.748;8.960;2023-02-03T12:40:21;98219.59;;;11.10;49.07
3150;BME280;32503;47.748;8.960;2023-02-03T12:42:55;98230.47;;;11.02;49.35
3150;BME280;32503;47.748;8.960;2023-02-03T12:45:29;98219.16;;;10.99;49.06
3150;BME280;32503;47.748;8.960;2023-02-03T12:48:03;98211.53;;;11.02;49.35
3150;BME280;32503;47.748;8.960;2023-02-03T12:50:36;98217.69;;;11.11;49.69
3150;BME280;32503;47.748;8.960;2023-02-03T12:53:13;98204.16;;;11.11;49.19
3150;BME280;32503;47.748;8.960;2023-02-03T12:55:45;98211.34;;;11.07;49.80
3150;BME280;32503;47.748;8.960;2023-02-03T12:58:20;98198.78;;;11.02;49.76
3150;BME280;32503;47.748;8.960;2023-02-03T13:00:56;98195.75;;;11.04;50.04
3150;BME280;32503;47.748;8.960;2023-02-03T13:03:32;98181.78;;;10.93;49.99
3150;BME280;32503;47.748;8.960;2023-02-03T13:06:09;98185.09;;;10.98;49.71
3150;BME280;32503;47.748;8.960;2023-02-03T13:08:41;98185.88;;;10.99;50.09
3150;BME280;32503;47.748;8.960;2023-02-03T13:11:19;98199.34;;;10.69;49.99
3150;BME280;32503;47.748;8.960;2023-02-03T13:13:54;98189.53;;;10.56;50.36
3150;BME280;32503;47.748;8.960;2023-02-03T13:16:28;98212.28;;;10.46;50.74
3150;BME280;32503;47.748;8.960;2023-02-03T13:19:04;98189.53;;;10.12;51.24
3150;BME280;32503;47.748;8.960;2023-02-03T13:21:32;98179.66;;;10.16;51.32
3150;BME280;32503;47.748;8.960;2023-02-03T13:24:02;98180.00;;;10.15;51.07
3150;BME280;32503;47.748;8.960;2023-02-03T13:26:58;98178.25;;;10.10;51.11
3150;BME280;32503;47.748;8.960;2023-02-03T13:30:10;98188.09;;;10.23;50.66
3150;BME280;32503;47.748;8.960;2023-02-03T13:33:05;98198.59;;;10.16;51.19
3150;BME280;32503;47.748;8.960;2023-02-03T13:35:52;98204.00;;;10.16;51.75
3150;BME280;32503;47.748;8.960;2023-02-03T13:39:06;98221.03;;;10.17;51.59
3150;BME280;32503;47.748;8.960;2023-02-03T13:41:45;98222.47;;;10.32;51.22
3150;BME280;32503;47.748;8.960;2023-02-03T13:44:18;98227.09;;;10.31;50.75
3150;BME280;32503;47.748;8.960;2023-02-03T13:46:48;98216.88;;;10.28;50.70
3150;BME280;32503;47.748;8.960;2023-02-03T13:49:22;98210.53;;;10.24;51.10